BAW908 EGPH-EGLC
Flight info
| Callsign | BAW908 |
|---|---|
| Flight time | N/A |
| Altitude | 39000 |
| Route | GOSAM P600 FENIK L612 NAVSO DCT AKOMU DCT VAMEB UL612 LISTO |
| Aircraft | A20N/M-SDE2E3FGHIRWXY/LB1 |
Departure
| Time | 2026-04-25 08:57 |
|---|---|
| Airport | Edinburgh Airport (EGPH) |
Arrival
| Time | N/A |
|---|---|
| Airport | London City Airport (EGLC) |
| Time | Latitude | Longitude | Altitude | Speed | Heading |
|---|---|---|---|---|---|
| 2026-04-25 08:57 | 55.88955 | -3.47767 | 6503 ft | 270 kts | 202° |
| 2026-04-25 08:57 | 55.87161 | -3.48826 | 8195 ft | 274 kts | 199° |
| 2026-04-25 08:58 | 55.85296 | -3.49761 | 9780 ft | 283 kts | 197° |
| 2026-04-25 08:58 | 55.83349 | -3.50673 | 11103 ft | 300 kts | 197° |
| 2026-04-25 08:58 | 55.81212 | -3.51681 | 11795 ft | 337 kts | 197° |
| 2026-04-25 08:58 | 55.78828 | -3.52838 | 12408 ft | 371 kts | 197° |
| 2026-04-25 08:59 | 55.76319 | -3.54082 | 13445 ft | 387 kts | 198° |
| 2026-04-25 08:59 | 55.73691 | -3.55405 | 14586 ft | 397 kts | 198° |
| 2026-04-25 08:59 | 55.71017 | -3.56762 | 15768 ft | 402 kts | 197° |
| 2026-04-25 08:59 | 55.68314 | -3.58139 | 16988 ft | 406 kts | 197° |
| 2026-04-25 09:00 | 55.65580 | -3.59533 | 18129 ft | 411 kts | 197° |
| 2026-04-25 09:00 | 55.62814 | -3.60943 | 19114 ft | 417 kts | 197° |
| 2026-04-25 09:00 | 55.60009 | -3.62371 | 19978 ft | 422 kts | 197° |
| 2026-04-25 09:00 | 55.57165 | -3.63816 | 20816 ft | 428 kts | 197° |
| 2026-04-25 09:01 | 55.54286 | -3.65276 | 21643 ft | 433 kts | 197° |
| 2026-04-25 09:01 | 55.51368 | -3.66753 | 22456 ft | 438 kts | 197° |
| 2026-04-25 09:01 | 55.48421 | -3.68243 | 23250 ft | 443 kts | 197° |
| 2026-04-25 09:01 | 55.45440 | -3.69747 | 23990 ft | 448 kts | 196° |
| 2026-04-25 09:02 | 55.42471 | -3.71242 | 24659 ft | 451 kts | 196° |
| 2026-04-25 09:02 | 55.39445 | -3.72764 | 25308 ft | 455 kts | 196° |
| 2026-04-25 09:02 | 55.36387 | -3.74299 | 25936 ft | 458 kts | 196° |
| 2026-04-25 09:02 | 55.33315 | -3.75838 | 26552 ft | 462 kts | 196° |
| 2026-04-25 09:03 | 55.30214 | -3.77378 | 27157 ft | 465 kts | 195° |
| 2026-04-25 09:03 | 55.27035 | -3.78516 | 27823 ft | 466 kts | 188° |
| 2026-04-25 09:03 | 55.23810 | -3.78887 | 28692 ft | 464 kts | 180° |
| 2026-04-25 09:03 | 55.20606 | -3.78402 | 29559 ft | 462 kts | 171° |
| 2026-04-25 09:04 | 55.17515 | -3.76986 | 30471 ft | 458 kts | 162° |
| 2026-04-25 09:04 | 55.14583 | -3.74878 | 31238 ft | 454 kts | 158° |
| 2026-04-25 09:04 | 55.11725 | -3.72545 | 31905 ft | 452 kts | 155° |
| 2026-04-25 09:04 | 55.08909 | -3.70107 | 32561 ft | 450 kts | 155° |
| 2026-04-25 09:05 | 55.06121 | -3.67645 | 33211 ft | 448 kts | 155° |
| 2026-04-25 09:05 | 55.03383 | -3.65229 | 33842 ft | 446 kts | 155° |
| 2026-04-25 09:05 | 55.00617 | -3.62811 | 34440 ft | 444 kts | 155° |
| 2026-04-25 09:05 | 54.97856 | -3.60422 | 34934 ft | 443 kts | 155° |
| 2026-04-25 09:06 | 54.95082 | -3.58045 | 35217 ft | 447 kts | 155° |
| 2026-04-25 09:06 | 54.92291 | -3.55668 | 35653 ft | 446 kts | 155° |
| 2026-04-25 09:06 | 54.89498 | -3.53300 | 36074 ft | 447 kts | 155° |
| 2026-04-25 09:06 | 54.86703 | -3.50935 | 36459 ft | 447 kts | 155° |
| 2026-04-25 09:07 | 54.83900 | -3.48567 | 36857 ft | 448 kts | 155° |
| 2026-04-25 09:07 | 54.81101 | -3.46206 | 37261 ft | 448 kts | 155° |
| 2026-04-25 09:07 | 54.78295 | -3.43842 | 37664 ft | 448 kts | 155° |
| 2026-04-25 09:07 | 54.75529 | -3.41514 | 38062 ft | 448 kts | 155° |
| 2026-04-25 09:08 | 54.72726 | -3.39158 | 38459 ft | 448 kts | 155° |
| 2026-04-25 09:08 | 54.69918 | -3.36801 | 38850 ft | 448 kts | 155° |
| 2026-04-25 09:08 | 54.67112 | -3.34449 | 39144 ft | 449 kts | 155° |
| 2026-04-25 09:08 | 54.64306 | -3.32101 | 39270 ft | 448 kts | 155° |
| 2026-04-25 09:09 | 54.61501 | -3.29758 | 39225 ft | 448 kts | 155° |
| 2026-04-25 09:09 | 54.55878 | -3.25073 | 39204 ft | 450 kts | 155° |